createdAt,value
2018-06-29T00:00:34.340Z,65.90
2018-06-29T00:02:39.289Z,66.30
2018-06-29T00:04:44.278Z,66.50
2018-06-29T00:06:49.008Z,66.70
2018-06-29T00:08:53.819Z,66.90
2018-06-29T00:10:58.529Z,67.10
2018-06-29T00:13:03.503Z,67.40
2018-06-29T00:15:08.276Z,67.20
2018-06-29T00:17:13.208Z,67.70
2018-06-29T00:19:18.176Z,68.00
2018-06-29T00:21:23.017Z,68.50
2018-06-29T00:23:27.891Z,68.80
2018-06-29T00:25:32.630Z,68.80
2018-06-29T00:27:37.487Z,69.20
2018-06-29T00:29:42.292Z,69.40
2018-06-29T00:31:47.066Z,69.30
2018-06-29T00:33:51.846Z,69.70
2018-06-29T00:35:56.609Z,70.10
2018-06-29T00:38:01.495Z,70.10
2018-06-29T00:40:06.305Z,70.20
2018-06-29T00:42:11.085Z,70.70
2018-06-29T00:44:15.910Z,70.80
2018-06-29T00:46:20.785Z,71.10
2018-06-29T00:48:25.572Z,71.20
2018-06-29T00:50:30.470Z,71.00
2018-06-29T00:52:35.342Z,71.50
2018-06-29T00:54:40.433Z,71.40
2018-06-29T00:56:45.215Z,71.70
2018-06-29T01:00:54.664Z,72.40
2018-06-29T01:02:59.481Z,72.80
2018-06-29T01:05:04.396Z,72.90
2018-06-29T01:07:09.206Z,73.60
2018-06-29T01:09:14.277Z,74.00
2018-06-29T01:11:19.084Z,74.20
2018-06-29T01:13:23.932Z,74.30
2018-06-29T01:15:28.684Z,74.60
2018-06-29T01:17:33.542Z,74.60
2018-06-29T01:19:38.351Z,74.60
2018-06-29T01:21:43.286Z,75.00
2018-06-29T01:23:47.973Z,75.00
2018-06-29T01:25:52.767Z,75.10
2018-06-29T01:27:57.643Z,75.60
2018-06-29T01:30:02.518Z,76.00
2018-06-29T01:32:07.365Z,76.20
2018-06-29T01:34:12.218Z,76.30
2018-06-29T01:36:16.901Z,76.60
2018-06-29T01:38:21.679Z,76.80
2018-06-29T01:40:26.498Z,77.30
2018-06-29T01:44:35.696Z,78.00
2018-06-29T01:46:40.571Z,78.40
2018-06-29T01:51:00.249Z,78.80
2018-06-29T01:53:05.194Z,79.20
2018-06-29T01:55:10.174Z,79.40
2018-06-29T01:57:15.052Z,79.70
2018-06-29T01:59:20.157Z,80.50
2018-06-29T02:01:25.098Z,80.90
2018-06-29T02:03:29.988Z,81.10
2018-06-29T02:05:34.819Z,81.50
2018-06-29T02:07:39.569Z,81.80
2018-06-29T02:11:59.521Z,81.60
2018-06-29T02:14:04.565Z,82.30
2018-06-29T02:16:09.682Z,82.80
2018-06-29T02:18:14.515Z,83.30
2018-06-29T02:20:19.688Z,83.40
2018-06-29T02:22:24.521Z,83.90
2018-06-29T02:24:29.406Z,84.10
2018-06-29T02:26:34.274Z,84.70
2018-06-29T02:28:39.152Z,84.80
2018-06-29T02:30:44.186Z,85.20
2018-06-29T02:32:49.325Z,85.50
2018-06-29T02:34:54.408Z,86.00
2018-06-29T02:36:59.225Z,86.50
2018-06-29T02:39:05.043Z,87.20
2018-06-29T02:41:10.057Z,87.70
2018-06-29T02:43:14.822Z,88.20
2018-06-29T02:45:19.753Z,88.70
2018-06-29T02:47:24.453Z,89.00
2018-06-29T02:49:29.329Z,89.10
2018-06-29T02:51:34.302Z,89.50
2018-06-29T02:53:39.119Z,89.70
2018-06-29T02:55:44.297Z,89.80
2018-06-29T02:57:49.234Z,89.80
2018-06-29T02:59:54.025Z,90.00
2018-06-29T03:01:58.966Z,90.10
2018-06-29T03:04:03.845Z,90.40
2018-06-29T03:06:09.106Z,90.50
2018-06-29T03:08:14.131Z,90.80
2018-06-29T03:10:18.961Z,91.00
2018-06-29T03:12:23.934Z,91.20
2018-06-29T03:14:28.822Z,91.30
2018-06-29T03:16:33.583Z,91.30
2018-06-29T03:18:38.518Z,91.50
2018-06-29T03:20:43.620Z,91.50
2018-06-29T03:22:48.670Z,91.60
2018-06-29T03:24:53.737Z,91.80
2018-06-29T03:26:58.729Z,91.80
2018-06-29T03:29:03.601Z,91.90
2018-06-29T03:35:17.357Z,92.90
2018-06-29T03:37:22.140Z,93.00
2018-06-29T03:39:27.119Z,93.30
2018-06-29T03:41:32.027Z,93.50
2018-06-29T03:43:36.862Z,93.90
2018-06-29T03:45:41.724Z,93.60
2018-06-29T03:47:46.683Z,93.80
2018-06-29T03:49:51.489Z,93.90
2018-06-29T03:51:56.336Z,94.00
2018-06-29T03:54:01.194Z,94.10
2018-06-29T03:56:06.249Z,94.10
2018-06-29T04:00:15.538Z,94.00
2018-06-29T04:02:20.594Z,93.90
2018-06-29T04:04:25.391Z,94.10
2018-06-29T04:06:30.215Z,94.10
2018-06-29T04:08:35.179Z,94.20
2018-06-29T04:12:54.963Z,94.40
2018-06-29T04:17:04.206Z,94.70
2018-06-29T04:19:09.066Z,94.50
2018-06-29T04:23:24.953Z,94.70
2018-06-29T04:25:29.865Z,94.70
2018-06-29T04:27:34.959Z,94.70
2018-06-29T04:29:40.311Z,94.70
2018-06-29T04:31:45.169Z,94.70
2018-06-29T04:33:49.969Z,94.80
2018-06-29T04:35:54.793Z,94.90
2018-06-29T04:37:59.525Z,94.90
2018-06-29T04:40:04.889Z,95.00
2018-06-29T04:42:09.943Z,95.00
2018-06-29T04:44:14.847Z,94.90
2018-06-29T04:46:19.692Z,94.90
2018-06-29T04:48:24.553Z,94.80
2018-06-29T04:50:29.523Z,94.80
2018-06-29T04:52:34.340Z,95.10
2018-06-29T04:54:39.381Z,94.90
2018-06-29T04:56:44.309Z,94.90
2018-06-29T04:58:49.282Z,95.10
2018-06-29T05:00:55.312Z,94.70
2018-06-29T05:03:00.280Z,94.70
2018-06-29T05:05:05.314Z,94.80
2018-06-29T05:07:10.843Z,94.80
2018-06-29T05:09:15.803Z,94.90
2018-06-29T05:11:20.748Z,95.20
2018-06-29T05:13:27.080Z,94.80
2018-06-29T05:15:31.967Z,94.70
2018-06-29T05:17:36.743Z,94.40
2018-06-29T05:19:41.693Z,94.40
2018-06-29T05:21:46.561Z,94.40
2018-06-29T05:23:51.693Z,94.50
2018-06-29T05:25:56.583Z,94.20
2018-06-29T05:28:01.748Z,94.30
2018-06-29T05:30:17.178Z,94.10
2018-06-29T05:32:22.161Z,94.00
2018-06-29T05:34:28.088Z,93.90
2018-06-29T05:36:33.017Z,93.70
2018-06-29T05:38:37.928Z,93.90
2018-06-29T05:40:43.016Z,93.90
2018-06-29T05:42:49.140Z,93.80
2018-06-29T05:44:54.062Z,93.70
2018-06-29T05:46:58.968Z,93.70
2018-06-29T05:49:03.921Z,93.70
2018-06-29T05:51:08.840Z,93.50
2018-06-29T05:53:13.759Z,93.60
2018-06-29T05:55:19.428Z,93.60
2018-06-29T05:57:25.506Z,93.50
2018-06-29T05:59:30.897Z,93.20
2018-06-29T06:01:35.727Z,93.20
2018-06-29T06:03:40.572Z,93.30
2018-06-29T06:05:45.424Z,93.20
2018-06-29T06:07:50.484Z,93.00
2018-06-29T06:09:55.498Z,92.80
2018-06-29T06:12:00.494Z,92.70
2018-06-29T06:14:05.982Z,92.40
2018-06-29T06:16:10.822Z,92.00
2018-06-29T06:18:15.600Z,92.10
2018-06-29T06:20:20.473Z,92.20
2018-06-29T06:22:25.320Z,92.10
2018-06-29T06:24:30.298Z,91.90
2018-06-29T06:26:35.519Z,92.00
2018-06-29T06:28:40.549Z,92.10
2018-06-29T06:30:45.459Z,92.00
2018-06-29T06:32:50.482Z,91.90
2018-06-29T06:34:55.437Z,91.90
2018-06-29T06:37:00.394Z,91.90
2018-06-29T06:39:08.547Z,91.80
2018-06-29T06:41:13.489Z,91.70
2018-06-29T06:43:18.316Z,91.60
2018-06-29T06:45:23.083Z,91.40
2018-06-29T06:47:27.867Z,91.60
2018-06-29T06:49:37.045Z,90.80
2018-06-29T06:51:42.014Z,90.50
2018-06-29T06:53:46.914Z,89.30
2018-06-29T06:55:51.892Z,89.00
2018-06-29T06:57:56.891Z,87.70
2018-06-29T07:00:01.735Z,87.30
2018-06-29T07:02:06.838Z,86.70
2018-06-29T07:06:16.312Z,87.20
2018-06-29T07:08:21.241Z,85.70
2018-06-29T07:10:26.251Z,85.90
2018-06-29T07:12:31.267Z,85.30
2018-06-29T07:14:36.129Z,84.80
2018-06-29T07:16:41.076Z,84.30
2018-06-29T07:18:46.059Z,83.00
2018-06-29T07:20:50.989Z,81.90
2018-06-29T07:22:55.854Z,81.70
2018-06-29T07:25:00.776Z,81.80
2018-06-29T07:27:05.753Z,82.30
2018-06-29T07:29:10.832Z,81.20
2018-06-29T07:31:15.782Z,80.50
2018-06-29T07:33:21.174Z,80.00
2018-06-29T07:37:30.912Z,79.10
2018-06-29T07:39:36.004Z,78.70
2018-06-29T07:41:41.140Z,78.80
2018-06-29T07:43:45.893Z,77.90
2018-06-29T07:45:50.834Z,76.80
2018-06-29T07:47:55.807Z,76.70
2018-06-29T07:50:00.743Z,75.80
2018-06-29T07:52:05.575Z,75.50
2018-06-29T07:54:10.646Z,74.00
2018-06-29T07:56:15.580Z,73.90
2018-06-29T07:58:20.669Z,72.50
2018-06-29T08:00:25.642Z,71.70
2018-06-29T08:02:30.662Z,70.40
2018-06-29T08:04:35.736Z,69.90
2018-06-29T08:06:40.799Z,68.60
2018-06-29T08:08:45.932Z,66.50
2018-06-29T08:10:50.857Z,66.20
2018-06-29T08:12:55.707Z,66.70
2018-06-29T08:15:00.725Z,66.20
2018-06-29T08:17:05.786Z,64.40
2018-06-29T08:19:10.825Z,62.80
2018-06-29T08:21:15.779Z,62.00
2018-06-29T08:23:21.182Z,64.30
2018-06-29T08:25:26.160Z,63.40
2018-06-29T08:27:31.025Z,63.50
2018-06-29T08:29:36.214Z,63.40
2018-06-29T08:31:41.044Z,63.40
2018-06-29T08:33:45.965Z,63.30
2018-06-29T08:37:55.267Z,62.30
2018-06-29T08:40:00.140Z,62.00
2018-06-29T08:42:05.041Z,61.40
2018-06-29T08:44:09.873Z,60.30
2018-06-29T08:46:14.965Z,61.50
2018-06-29T08:48:19.855Z,60.20
2018-06-29T08:52:29.003Z,58.90
2018-06-29T08:54:34.002Z,58.60
2018-06-29T08:56:38.879Z,59.30
2018-06-29T08:58:43.917Z,59.20
2018-06-29T09:00:48.912Z,58.70
2018-06-29T09:04:58.416Z,57.80
2018-06-29T09:07:03.121Z,57.00
2018-06-29T09:09:10.338Z,56.70
2018-06-29T09:11:15.138Z,56.20
2018-06-29T09:13:19.851Z,56.10
2018-06-29T09:15:24.664Z,56.10
2018-06-29T09:17:29.588Z,56.90
2018-06-29T09:19:34.657Z,57.50
2018-06-29T09:21:39.875Z,57.10
2018-06-29T09:23:44.813Z,57.20
2018-06-29T09:25:49.813Z,56.90
2018-06-29T09:27:54.790Z,56.80
2018-06-29T09:30:00.207Z,57.50
2018-06-29T09:32:04.997Z,57.40
2018-06-29T09:34:09.837Z,57.10
2018-06-29T09:36:14.686Z,56.70
2018-06-29T09:38:19.767Z,55.40
2018-06-29T09:40:24.679Z,55.20
2018-06-29T09:42:29.604Z,55.20
2018-06-29T09:44:34.363Z,54.10
2018-06-29T09:46:39.369Z,54.20
2018-06-29T09:48:44.298Z,54.20
2018-06-29T09:50:49.142Z,53.90
2018-06-29T09:52:53.945Z,53.80
2018-06-29T09:54:58.701Z,54.90
2018-06-29T09:57:03.505Z,54.00
2018-06-29T09:59:08.376Z,55.00
2018-06-29T10:01:13.560Z,53.70
2018-06-29T10:03:18.513Z,53.80
2018-06-29T10:05:23.320Z,54.30
2018-06-29T10:07:28.131Z,52.60
2018-06-29T10:09:32.994Z,50.10
2018-06-29T10:11:38.158Z,50.50
2018-06-29T10:13:43.077Z,49.70
2018-06-29T10:15:47.809Z,50.30
2018-06-29T10:17:52.708Z,49.70
2018-06-29T10:19:57.562Z,49.30
2018-06-29T10:22:08.887Z,48.00
2018-06-29T10:24:13.651Z,49.20
2018-06-29T10:26:18.856Z,48.50
2018-06-29T10:28:23.826Z,48.40
2018-06-29T10:30:28.666Z,48.40
2018-06-29T10:32:33.385Z,48.50
2018-06-29T10:34:38.173Z,47.40
2018-06-29T10:36:42.975Z,47.50
2018-06-29T10:38:47.749Z,47.50
2018-06-29T10:40:52.515Z,47.70
2018-06-29T10:42:57.347Z,45.80
2018-06-29T10:45:02.162Z,46.10
2018-06-29T10:47:07.004Z,46.90
2018-06-29T10:49:11.841Z,46.30
2018-06-29T10:53:29.082Z,46.80
2018-06-29T10:55:33.800Z,47.50
2018-06-29T10:57:38.511Z,46.40
2018-06-29T10:59:43.357Z,45.60
2018-06-29T11:01:48.186Z,45.20
2018-06-29T11:03:53.061Z,46.10
2018-06-29T11:05:57.957Z,46.80
2018-06-29T11:08:02.651Z,46.20
2018-06-29T11:10:08.789Z,46.00
2018-06-29T11:12:13.640Z,46.30
2018-06-29T11:14:18.621Z,46.40
2018-06-29T11:16:23.476Z,47.00
2018-06-29T11:18:28.446Z,47.30
2018-06-29T11:20:33.560Z,47.00
2018-06-29T11:22:38.345Z,47.00
2018-06-29T11:24:43.099Z,47.70
2018-06-29T11:26:48.014Z,47.40
2018-06-29T11:28:53.594Z,47.70
2018-06-29T11:30:58.282Z,48.00
2018-06-29T11:33:03.016Z,45.70
2018-06-29T11:35:07.746Z,47.00
2018-06-29T11:37:12.498Z,46.50
2018-06-29T11:39:17.229Z,46.20
2018-06-29T11:41:22.038Z,46.20
2018-06-29T11:43:26.772Z,46.30
2018-06-29T11:45:31.483Z,46.10
2018-06-29T11:47:36.260Z,45.50
2018-06-29T11:49:41.018Z,45.10
2018-06-29T11:51:45.722Z,45.10
2018-06-29T11:53:50.509Z,45.40
2018-06-29T11:55:55.305Z,44.20
2018-06-29T11:58:00.211Z,44.40
2018-06-29T12:00:05.493Z,45.60
2018-06-29T12:02:10.367Z,45.00
2018-06-29T12:04:15.126Z,45.60
2018-06-29T12:06:19.871Z,45.70
2018-06-29T12:08:24.955Z,45.00
2018-06-29T12:10:29.759Z,44.50
2018-06-29T12:14:38.984Z,42.90
2018-06-29T12:16:43.854Z,43.50
2018-06-29T12:18:49.581Z,43.30
2018-06-29T12:20:54.302Z,43.50
2018-06-29T12:22:59.112Z,43.30
2018-06-29T12:25:03.858Z,43.90
2018-06-29T12:27:08.771Z,43.80
2018-06-29T12:29:13.683Z,44.10
2018-06-29T12:31:18.522Z,43.90
2018-06-29T12:33:23.502Z,44.70
2018-06-29T12:35:28.454Z,44.10
2018-06-29T12:37:34.326Z,43.60
2018-06-29T12:39:39.441Z,43.60
2018-06-29T12:41:44.680Z,42.80
2018-06-29T12:43:49.913Z,41.60
2018-06-29T12:45:55.128Z,41.70
2018-06-29T12:48:00.581Z,41.60
2018-06-29T12:50:05.591Z,42.00
2018-06-29T12:52:10.738Z,42.60
2018-06-29T12:54:15.859Z,42.90
2018-06-29T12:56:20.646Z,42.90
2018-06-29T12:58:25.836Z,42.50
2018-06-29T13:00:30.668Z,42.50
2018-06-29T13:02:35.756Z,42.80
2018-06-29T13:04:41.277Z,42.10
2018-06-29T13:06:46.058Z,42.50
2018-06-29T13:08:50.897Z,41.40
2018-06-29T13:10:56.802Z,42.40
2018-06-29T13:13:01.850Z,41.50
2018-06-29T13:15:07.217Z,40.40
2018-06-29T13:17:12.097Z,40.80
2018-06-29T13:19:17.003Z,41.10
2018-06-29T13:21:21.894Z,41.00
2018-06-29T13:23:26.788Z,40.60
2018-06-29T13:25:31.790Z,40.40
2018-06-29T13:27:37.376Z,40.10
2018-06-29T13:29:42.338Z,40.80
2018-06-29T13:31:47.160Z,40.80
2018-06-29T13:33:52.035Z,40.70
2018-06-29T13:35:56.770Z,40.50
2018-06-29T13:38:01.691Z,40.20
2018-06-29T13:40:06.672Z,39.50
2018-06-29T13:42:12.014Z,39.60
2018-06-29T13:44:17.041Z,39.70
2018-06-29T13:46:22.253Z,38.50
2018-06-29T13:48:27.464Z,38.90
2018-06-29T13:50:33.994Z,39.10
2018-06-29T13:52:39.122Z,38.70
2018-06-29T13:54:45.024Z,39.10
2018-06-29T13:56:49.950Z,39.50
2018-06-29T13:58:55.191Z,39.90
2018-06-29T14:01:00.064Z,40.10
2018-06-29T14:03:05.045Z,37.90
2018-06-29T14:05:10.065Z,38.30
2018-06-29T14:07:15.004Z,37.90
2018-06-29T14:09:20.949Z,38.20
2018-06-29T14:11:25.719Z,37.20
2018-06-29T14:15:35.163Z,38.20
2018-06-29T14:17:40.140Z,38.30
2018-06-29T14:19:45.065Z,38.20
2018-06-29T14:21:49.817Z,38.30
2018-06-29T14:23:54.599Z,37.50
2018-06-29T14:25:59.782Z,38.40
2018-06-29T14:28:04.689Z,38.20
2018-06-29T14:30:09.583Z,37.10
2018-06-29T14:32:14.654Z,38.40
2018-06-29T14:34:19.522Z,38.30
2018-06-29T14:36:24.326Z,36.70
2018-06-29T14:38:29.332Z,35.40
2018-06-29T14:40:34.545Z,36.50
2018-06-29T14:42:39.584Z,36.60
2018-06-29T14:44:44.492Z,36.60
2018-06-29T14:46:49.454Z,37.30
2018-06-29T14:48:54.331Z,35.60
2018-06-29T14:50:59.335Z,35.80
2018-06-29T14:53:04.253Z,35.10
2018-06-29T14:55:09.263Z,35.10
2018-06-29T14:57:14.199Z,36.20
2018-06-29T14:59:19.055Z,35.60
2018-06-29T15:01:24.138Z,35.10
2018-06-29T15:03:29.162Z,35.50
2018-06-29T15:05:34.686Z,36.10
2018-06-29T15:07:39.758Z,36.20
2018-06-29T15:09:44.518Z,36.60
2018-06-29T15:11:49.517Z,36.30
2018-06-29T15:13:54.744Z,36.10
2018-06-29T15:16:00.554Z,36.80
2018-06-29T15:18:05.718Z,37.60
2018-06-29T15:20:10.525Z,37.70
2018-06-29T15:22:15.459Z,38.10
2018-06-29T15:24:20.742Z,38.40
2018-06-29T15:26:26.079Z,38.40
2018-06-29T15:28:30.972Z,38.50
2018-06-29T15:30:35.785Z,38.80
2018-06-29T15:32:40.768Z,38.50
2018-06-29T15:34:46.049Z,39.10
2018-06-29T15:36:50.986Z,39.10
2018-06-29T15:38:55.848Z,39.30
2018-06-29T15:41:00.824Z,39.30
2018-06-29T15:43:07.070Z,38.70
2018-06-29T15:45:13.248Z,39.50
2018-06-29T15:47:18.069Z,39.50
2018-06-29T15:49:23.203Z,39.10
2018-06-29T15:51:28.155Z,39.20
2018-06-29T15:53:33.058Z,38.50
2018-06-29T15:55:37.939Z,38.20
2018-06-29T15:57:42.884Z,38.20
2018-06-29T15:59:47.773Z,38.30
2018-06-29T16:01:52.685Z,38.50
2018-06-29T16:03:57.574Z,38.40
2018-06-29T16:06:02.610Z,38.40
2018-06-29T16:08:07.987Z,38.50
2018-06-29T16:10:12.825Z,38.60
2018-06-29T16:12:17.887Z,38.30
2018-06-29T16:14:22.666Z,38.10
2018-06-29T16:16:28.305Z,37.70
2018-06-29T16:18:33.201Z,38.00
2018-06-29T16:20:38.038Z,37.60
2018-06-29T16:22:43.062Z,37.70
2018-06-29T16:24:47.995Z,37.50
2018-06-29T16:26:53.069Z,37.40
2018-06-29T16:28:58.013Z,37.40
2018-06-29T16:31:03.143Z,36.40
2018-06-29T16:33:08.484Z,37.10
2018-06-29T16:35:13.382Z,36.20
2018-06-29T16:37:18.388Z,36.70
2018-06-29T16:39:23.487Z,36.60
2018-06-29T16:41:28.409Z,37.10
2018-06-29T16:43:33.244Z,37.80
2018-06-29T16:45:38.134Z,37.10
2018-06-29T16:47:44.077Z,37.00
2018-06-29T16:49:48.976Z,36.50
2018-06-29T16:51:53.944Z,35.90
2018-06-29T16:56:15.597Z,35.40
2018-06-29T16:58:20.823Z,34.80
2018-06-29T17:00:27.244Z,33.60
2018-06-29T17:02:32.270Z,33.20
2018-06-29T17:04:37.521Z,33.00
2018-06-29T17:06:42.918Z,32.90
2018-06-29T17:08:48.370Z,32.50
2018-06-29T17:10:53.607Z,32.80
2018-06-29T17:15:03.080Z,32.20
2018-06-29T17:17:08.003Z,31.80
2018-06-29T17:19:12.959Z,31.90
2018-06-29T17:21:18.481Z,32.30
2018-06-29T17:23:23.614Z,32.30
2018-06-29T17:25:29.671Z,31.20
2018-06-29T17:27:35.344Z,31.30
2018-06-29T17:29:41.305Z,31.20
2018-06-29T17:31:46.055Z,31.30
2018-06-29T17:33:50.950Z,31.80
2018-06-29T17:35:55.636Z,31.90
2018-06-29T17:38:02.870Z,31.10
2018-06-29T17:40:07.731Z,31.20
2018-06-29T17:42:12.524Z,31.10
2018-06-29T17:44:17.345Z,31.70
2018-06-29T17:46:22.329Z,31.60
2018-06-29T17:48:27.254Z,32.10
2018-06-29T17:50:32.002Z,31.90
2018-06-29T17:52:36.947Z,32.30
2018-06-29T17:54:41.897Z,32.40
2018-06-29T17:56:46.915Z,31.60
2018-06-29T17:58:52.242Z,31.70
2018-06-29T18:00:57.138Z,31.50
2018-06-29T18:03:01.981Z,31.00
2018-06-29T18:05:07.047Z,31.00
2018-06-29T18:07:11.888Z,31.40
2018-06-29T18:09:16.702Z,31.50
2018-06-29T18:11:22.071Z,31.60
2018-06-29T18:13:28.027Z,31.50
2018-06-29T18:15:33.622Z,31.40
2018-06-29T18:17:38.884Z,31.70
2018-06-29T18:19:44.084Z,31.90
2018-06-29T18:21:48.915Z,32.40
2018-06-29T18:23:54.276Z,32.70
2018-06-29T18:25:59.365Z,33.00
2018-06-29T18:28:04.669Z,34.50
2018-06-29T18:30:10.458Z,34.30
2018-06-29T18:32:15.281Z,34.30
2018-06-29T18:34:20.168Z,34.80
2018-06-29T18:36:25.005Z,34.70
2018-06-29T18:38:29.866Z,34.60
2018-06-29T18:40:34.666Z,35.40
2018-06-29T18:42:39.630Z,36.00
2018-06-29T18:44:44.615Z,36.40
2018-06-29T18:46:49.696Z,37.00
2018-06-29T18:49:03.769Z,37.20
2018-06-29T18:51:09.418Z,37.80
2018-06-29T18:53:14.706Z,38.10
2018-06-29T18:55:19.717Z,38.50
2018-06-29T18:57:24.672Z,38.80
2018-06-29T18:59:29.749Z,39.30
2018-06-29T19:01:34.620Z,39.60
2018-06-29T19:03:39.627Z,39.90
2018-06-29T19:05:44.619Z,39.80
2018-06-29T19:07:49.479Z,40.00
2018-06-29T19:09:54.650Z,40.60
2018-06-29T19:11:59.656Z,40.80
2018-06-29T19:14:04.807Z,41.00
2018-06-29T19:16:09.793Z,41.30
2018-06-29T19:18:14.700Z,41.40
2018-06-29T19:20:22.481Z,41.60
2018-06-29T19:22:27.781Z,41.90
2018-06-29T19:24:32.883Z,41.80
2018-06-29T19:26:37.908Z,42.40
2018-06-29T19:28:42.854Z,42.80
2018-06-29T19:30:47.612Z,42.90
2018-06-29T19:32:52.743Z,43.40
2018-06-29T19:34:57.669Z,43.60
2018-06-29T19:37:03.313Z,43.50
2018-06-29T19:39:10.445Z,43.60
2018-06-29T19:41:15.594Z,43.90
2018-06-29T19:43:21.347Z,44.00
2018-06-29T19:45:26.825Z,44.20
2018-06-29T19:47:31.809Z,44.60
2018-06-29T19:49:37.074Z,44.80
2018-06-29T19:51:42.079Z,45.40
2018-06-29T19:53:47.094Z,45.60
2018-06-29T19:55:52.548Z,46.20
2018-06-29T19:57:57.840Z,46.80
2018-06-29T20:00:03.472Z,47.30
2018-06-29T20:02:09.223Z,48.10
2018-06-29T20:04:14.974Z,49.10
2018-06-29T20:06:19.977Z,49.80
2018-06-29T20:08:25.104Z,50.50
2018-06-29T20:10:30.053Z,51.10
2018-06-29T20:12:35.277Z,52.10
2018-06-29T20:14:40.603Z,52.60
2018-06-29T20:16:46.776Z,53.30
2018-06-29T20:18:51.776Z,53.90
2018-06-29T20:20:56.788Z,54.40
2018-06-29T20:23:01.799Z,55.00
2018-06-29T20:25:07.082Z,55.40
2018-06-29T20:27:12.249Z,55.60
2018-06-29T20:29:17.147Z,56.10
2018-06-29T20:31:22.225Z,56.50
2018-06-29T20:33:27.077Z,56.80
2018-06-29T20:35:32.345Z,57.30
2018-06-29T20:37:37.515Z,57.50
2018-06-29T20:39:42.593Z,57.90
2018-06-29T20:41:47.498Z,58.20
2018-06-29T20:43:53.049Z,58.40
2018-06-29T20:45:58.066Z,58.60
2018-06-29T20:48:03.031Z,58.60
2018-06-29T20:50:08.102Z,58.90
2018-06-29T20:52:13.143Z,58.80
2018-06-29T20:54:19.151Z,58.90
2018-06-29T20:56:24.045Z,59.10
2018-06-29T20:58:28.886Z,59.20
2018-06-29T21:00:33.935Z,59.30
2018-06-29T21:02:39.122Z,59.50
2018-06-29T21:04:44.089Z,59.80
2018-06-29T21:06:49.214Z,60.20
2018-06-29T21:08:54.048Z,60.60
2018-06-29T21:10:58.989Z,60.70
2018-06-29T21:13:03.962Z,61.00
2018-06-29T21:15:08.873Z,61.10
2018-06-29T21:17:13.687Z,61.50
2018-06-29T21:19:18.645Z,61.70
2018-06-29T21:21:23.694Z,62.20
2018-06-29T21:23:28.528Z,62.20
2018-06-29T21:25:33.567Z,62.50
2018-06-29T21:27:38.843Z,62.50
2018-06-29T21:29:43.928Z,62.80
2018-06-29T21:31:48.964Z,63.00
2018-06-29T21:33:54.012Z,63.00
2018-06-29T21:35:59.376Z,63.20
2018-06-29T21:38:04.771Z,63.70
2018-06-29T21:40:09.630Z,64.50
2018-06-29T21:42:14.669Z,63.80
2018-06-29T21:44:19.541Z,63.80
2018-06-29T21:46:24.398Z,64.10
2018-06-29T21:48:29.328Z,64.10
2018-06-29T21:50:34.172Z,64.20
2018-06-29T21:52:39.127Z,64.40
2018-06-29T21:54:44.113Z,64.60
2018-06-29T21:56:49.246Z,64.80
2018-06-29T21:58:54.492Z,65.10
2018-06-29T22:00:59.556Z,65.20
2018-06-29T22:03:09.425Z,65.50
2018-06-29T22:05:14.622Z,65.60
2018-06-29T22:07:19.457Z,66.10
2018-06-29T22:09:24.502Z,66.10
2018-06-29T22:11:29.810Z,66.50
2018-06-29T22:13:34.727Z,66.80
2018-06-29T22:15:39.623Z,67.00
2018-06-29T22:17:46.431Z,67.10
2018-06-29T22:19:51.270Z,67.10
2018-06-29T22:21:56.208Z,67.70
2018-06-29T22:24:01.070Z,67.60
2018-06-29T22:26:06.188Z,68.10
2018-06-29T22:28:11.256Z,68.20
2018-06-29T22:30:16.227Z,68.50
2018-06-29T22:32:21.124Z,68.70
2018-06-29T22:34:26.019Z,69.20
2018-06-29T22:36:31.972Z,69.60
2018-06-29T22:38:36.998Z,69.70
2018-06-29T22:40:41.864Z,70.20
2018-06-29T22:42:46.653Z,70.70
2018-06-29T22:44:51.439Z,70.80
2018-06-29T22:46:56.336Z,71.50
2018-06-29T22:49:03.279Z,71.80
2018-06-29T22:51:08.131Z,72.30
2018-06-29T22:53:12.981Z,72.40
2018-06-29T22:55:17.779Z,73.10
2018-06-29T22:57:22.726Z,73.30
2018-06-29T22:59:27.555Z,73.70
2018-06-29T23:01:36.845Z,73.90
2018-06-29T23:03:46.856Z,74.00
2018-06-29T23:05:51.929Z,74.50
2018-06-29T23:07:56.739Z,74.70
2018-06-29T23:10:01.668Z,75.10
2018-06-29T23:12:06.726Z,75.40
2018-06-29T23:14:12.076Z,75.60
2018-06-29T23:16:17.633Z,75.40
2018-06-29T23:18:23.389Z,76.00
2018-06-29T23:20:28.511Z,76.30
2018-06-29T23:22:39.187Z,76.40
2018-06-29T23:24:44.275Z,76.70
2018-06-29T23:26:49.364Z,77.00
2018-06-29T23:28:54.288Z,77.60
2018-06-29T23:30:59.145Z,78.20
2018-06-29T23:33:04.574Z,78.40
2018-06-29T23:35:09.430Z,78.50
2018-06-29T23:37:14.471Z,79.10
2018-06-29T23:39:19.437Z,79.20
2018-06-29T23:41:24.342Z,79.20
2018-06-29T23:43:29.256Z,79.70
2018-06-29T23:45:34.424Z,80.20
2018-06-29T23:47:39.797Z,80.60
2018-06-29T23:49:44.787Z,80.80
2018-06-29T23:51:49.837Z,81.10
2018-06-29T23:53:54.994Z,81.50
2018-06-29T23:55:59.884Z,81.80
2018-06-29T23:58:04.777Z,82.10
